M I D A S
Marine Information and Data Acquisition System
Tripno 186 of the Zeeleeuw from 2001-12-17 07:15:00 to 2001-12-17 13:50:14
Back to CruiseResearch ActivitiesStationsMapUnderway DataData graphs

EquipmentUnitsComment
TimeDGPSUTC
LatitudeDGPSDM.mWGS84
LongitudeDGPSDM.mWGS84
HeadingGyrodeg 
SOGDGPSknotsSpeed over ground
COGDGPSdegCourse over ground
DepthEcho soundermeters200 kHz
Missing or incorrect values are displayed as -999
Navigation data collected by the RV Zeeleeuw from 2001-12-17 07:15:00 to 2001-12-17 13:50:14
                                                                                    Next 1000 lines
Time Latitude Longitude Heading SOG COG Depth
2001-12-17 07:48:12 51°13.687 2°55.904     180.7 -999
2001-12-17 07:48:17 51°13.687 2°55.904     265.5 -999
2001-12-17 07:48:22 51°13.687 2°55.904     313.9 -999
2001-12-17 07:48:27 51°13.686 2°55.904   0.1 329.5 -999
2001-12-17 07:48:32 51°13.686 2°55.904   0.1 338.5 -999
2001-12-17 07:48:36 51°13.686 2°55.904   0.1 345.9 5.7
2001-12-17 07:48:39 51°13.686 2°55.904     4.9 5.6
2001-12-17 07:48:42 51°13.686 2°55.904     55.3 5.6
2001-12-17 07:48:47 51°13.686 2°55.905     119.1 5.6
2001-12-17 07:48:52 51°13.686 2°55.905     133.9 5.7
2001-12-17 07:48:57 51°13.687 2°55.905     291.6 5.7
2001-12-17 07:49:02 51°13.687 2°55.905   0.1 332.9 5.7
2001-12-17 07:49:07 51°13.687 2°55.905     309.6 5.6
2001-12-17 07:49:12 51°13.687 2°55.905     214.6 5.7
2001-12-17 07:49:17 51°13.687 2°55.905     6.7 5.7
2001-12-17 07:49:22 51°13.687 2°55.905     349.7 5.6
2001-12-17 07:49:27 51°13.687 2°55.905   0.1 330.7 5.6
2001-12-17 07:49:32 51°13.687 2°55.905   0.1 340.1 5.6
2001-12-17 07:49:37 51°13.687 2°55.905     356.4 5.6
2001-12-17 07:49:42 51°13.687 2°55.905     348 5.7
2001-12-17 07:49:47 51°13.687 2°55.905     329.8 5.6
2001-12-17 07:49:52 51°13.687 2°55.905 359.8   336.9 5.7
2001-12-17 07:49:57 51°13.687 2°55.905 359.8   335.5 5.6
2001-12-17 07:50:01 51°13.687 2°55.905 359.8   335.9 5.6
2001-12-17 07:50:07 51°13.687 2°55.905 359.8   73.2 5.6
2001-12-17 07:50:12 51°13.687 2°55.905 359.8   118.4 5.6
2001-12-17 07:50:17 51°13.688 2°55.905 359.8   135.3 5.7
2001-12-17 07:50:22 51°13.688 2°55.905 359.8   154.5 5.6
2001-12-17 07:50:27 51°13.688 2°55.905 359.8   128.4 5.6
2001-12-17 07:50:32 51°13.688 2°55.905 359.8   97.6 5.6
2001-12-17 07:50:37 51°13.688 2°55.905 359.8   35.1 5.6
2001-12-17 07:50:41 51°13.688 2°55.905 359.8   2.7 5.6
2001-12-17 07:50:47 51°13.688 2°55.905 359.8   40.6 5.7
2001-12-17 07:50:52 51°13.688 2°55.905 359.8   116.6 5.7
2001-12-17 07:50:57 51°13.688 2°55.904 359.8   132.5 5.7
2001-12-17 07:51:02 51°13.688 2°55.904 359.8   40.2 5.7
2001-12-17 07:51:07 51°13.688 2°55.904 359.8   344.2 5.7
2001-12-17 07:51:12 51°13.688 2°55.904 359.7   318 5.7
2001-12-17 07:51:17 51°13.688 2°55.904 359.8   179.5 5.7
2001-12-17 07:51:21 51°13.688 2°55.904 359.7   160.4 5.7
2001-12-17 07:51:27 51°13.688 2°55.904 359.7   119.6 5.7
2001-12-17 07:51:32 51°13.688 2°55.904 359.7   335.5 5.7
2001-12-17 07:51:37 51°13.688 2°55.904 359.7   292.9 5.7
2001-12-17 07:51:42 51°13.688 2°55.904 359.7   218.9 5.7
2001-12-17 07:51:47 51°13.688 2°55.904 359.7   192.8 5.7
2001-12-17 07:51:52 51°13.688 2°55.904 359.7   169.6 5.7
2001-12-17 07:51:57 51°13.688 2°55.904 359.7   160.9 5.7
2001-12-17 07:52:02 51°13.688 2°55.904 359.7   55 5.7
2001-12-17 07:52:07 51°13.688 2°55.904 359.7   87.2 5.7
2001-12-17 07:52:12 51°13.688 2°55.904 359.5   144.8 5.7
2001-12-17 07:52:17 51°13.688 2°55.905 359.7   184.6 5.7
2001-12-17 07:52:21 51°13.689 2°55.905 359.5   290.5 5.7
2001-12-17 07:52:27 51°13.689 2°55.905 359.5   325.6 5.7
2001-12-17 07:52:32 51°13.689 2°55.905 359.5   313.2 5.7
2001-12-17 07:52:37 51°13.688 2°55.905 359.5   221.8 5.7
2001-12-17 07:52:42 51°13.689 2°55.905 359.5   297.1 5.7
2001-12-17 07:52:47 51°13.688 2°55.905 359.8   344.6 5.7
2001-12-17 07:52:52 51°13.688 2°55.905 23   354.4 5.7
2001-12-17 07:52:56 51°13.688 2°55.905 62   47.7 5.7
2001-12-17 07:53:01 51°13.689 2°55.905 103   52.3 5.7
2001-12-17 07:53:07 51°13.688 2°55.905 137.2   134.9 5.7
2001-12-17 07:53:12 51°13.688 2°55.905 138   157.1 5.7
2001-12-17 07:53:17 51°13.689 2°55.905 141.8   230.4 5.7
2001-12-17 07:53:22 51°13.689 2°55.905 140.7   285.4 5.7
2001-12-17 07:53:27 51°13.689 2°55.905 139.7   294.3 5.7
2001-12-17 07:53:32 51°13.689 2°55.905 139.7   259.9 5.7
2001-12-17 07:53:37 51°13.689 2°55.905 139.2   243.3 5.7
2001-12-17 07:53:41 51°13.689 2°55.905 139.2   248.6 5.7
2001-12-17 07:53:46 51°13.689 2°55.905 139.2   233.5 5.7
2001-12-17 07:53:51 51°13.689 2°55.905 139.2   351.6 5.7
2001-12-17 07:53:57 51°13.689 2°55.905 139   40.4 5.7
2001-12-17 07:54:01 51°13.689 2°55.905 139   64.8 5.7
2001-12-17 07:54:07 51°13.689 2°55.905 139   243.5 5.7
2001-12-17 07:54:12 51°13.689 2°55.905 139   232.6 5.7
2001-12-17 07:54:17 51°13.689 2°55.905 139   316.4 5.7
2001-12-17 07:54:22 51°13.689 2°55.905 139   358.5 5.7
2001-12-17 07:54:27 51°13.689 2°55.905 139   312.8 5.7
2001-12-17 07:54:32 51°13.689 2°55.905 139   324.9 5.7
2001-12-17 07:54:37 51°13.689 2°55.905 138.8   349.8 5.7
2001-12-17 07:54:41 51°13.689 2°55.905 138.8   324.7 5.7
2001-12-17 07:54:47 51°13.689 2°55.905 139   284.6 5.7
2001-12-17 07:54:52 51°13.689 2°55.905 138.8   324.1 5.6
2001-12-17 07:54:56 51°13.689 2°55.905 138.8   48.5 5.7
2001-12-17 07:55:02 51°13.689 2°55.905 138.8   170.6 5.7
2001-12-17 07:55:07 51°13.689 2°55.904 138.8   223.5 5.7
2001-12-17 07:55:11 51°13.689 2°55.904 138.8   213.4 5.7
2001-12-17 07:55:16 51°13.689 2°55.905 138.7   165.9 5.7
2001-12-17 07:55:22 51°13.689 2°55.904 138.8   161.1 5.7
2001-12-17 07:55:27 51°13.689 2°55.904 138.8   183 5.7
2001-12-17 07:55:31 51°13.689 2°55.904 138.7   254.7 5.7
2001-12-17 07:55:36 51°13.689 2°55.904 138.7   321.2 5.7
2001-12-17 07:55:42 51°13.689 2°55.904 138.7   269.8 5.7
2001-12-17 07:55:47 51°13.689 2°55.904 138.7   218.4 5.7
2001-12-17 07:55:52 51°13.689 2°55.904 138.7   223.8 5.7
2001-12-17 07:55:57 51°13.689 2°55.904 138.7   244.6 5.6
2001-12-17 07:56:01 51°13.689 2°55.904 138.7   293.2 5.6
2001-12-17 07:56:07 51°13.689 2°55.904 138.5   321.8 5.6
2001-12-17 07:56:12 51°13.689 2°55.904 138.5   317.4 5.7
2001-12-17 07:56:16 51°13.689 2°55.904 138.5   236.1 5.7
2001-12-17 07:56:22 51°13.689 2°55.905 138.5   43.8 5.7
2001-12-17 07:56:27 51°13.689 2°55.905 138.5   3.1 5.7
2001-12-17 07:56:31 51°13.689 2°55.905 138.5   334 5.7
2001-12-17 07:56:37 51°13.689 2°55.905 138.3   334.7 5.7
2001-12-17 07:56:41 51°13.689 2°55.905 138.3   317.5 5.7
2001-12-17 07:56:47 51°13.689 2°55.905 138.3   313.4 5.7
2001-12-17 07:56:52 51°13.689 2°55.905 138.3   240.7 5.7
2001-12-17 07:56:56 51°13.688 2°55.905 138.3   214.2 5.7
2001-12-17 07:57:01 51°13.688 2°55.905 138.3   234.5 5.7
2001-12-17 07:57:07 51°13.688 2°55.905 138.2   294.4 5.7
2001-12-17 07:57:11 51°13.688 2°55.905 138.3   264 5.7
2001-12-17 07:57:16 51°13.688 2°55.905 138.3   222.6 5.7
2001-12-17 07:57:22 51°13.688 2°55.905 138.2   243.6 5.7
2001-12-17 07:57:27 51°13.688 2°55.905 138.2 0.1 0.5 5.7
2001-12-17 07:57:32 51°13.688 2°55.905 138.2 0.1 5.5 5.7
2001-12-17 07:57:36 51°13.688 2°55.905 138.2   352.2 5.7
2001-12-17 07:57:41 51°13.688 2°55.905 138.2   264.4 5.6
2001-12-17 07:57:46 51°13.688 2°55.905 138   209.7 5.7
2001-12-17 07:57:52 51°13.688 2°55.905 138   37.7 5.7
2001-12-17 07:57:57 51°13.688 2°55.905 138   285.3 5.7
2001-12-17 07:58:01 51°13.688 2°55.905 138   263.5 5.7
2001-12-17 07:58:07 51°13.688 2°55.905 138   275.5 5.7
2001-12-17 07:58:12 51°13.688 2°55.905 137.8   247.7 5.7
2001-12-17 07:58:17 51°13.688 2°55.905 137.8   219.2 5.7
2001-12-17 07:58:22 51°13.688 2°55.905 137.8   213.1 5.6
2001-12-17 07:58:27 51°13.688 2°55.905 137.8   186.5 5.7
2001-12-17 07:58:32 51°13.688 2°55.905 137.8   180.4 5.7
2001-12-17 07:58:37 51°13.688 2°55.905 137.8   333.8 5.7
2001-12-17 07:58:41 51°13.688 2°55.905 137.8   334.4 5.6
2001-12-17 07:58:47 51°13.688 2°55.905 137.7   275.8 5.6
2001-12-17 07:58:52 51°13.688 2°55.905 137.7   242.7 5.6
2001-12-17 07:58:56 51°13.688 2°55.905 137.7   353.8 5.6
2001-12-17 07:59:02 51°13.688 2°55.905 137.7   356.5 5.7
2001-12-17 07:59:07 51°13.688 2°55.905 137.7   343.9 5.6
2001-12-17 07:59:12 51°13.688 2°55.905 137.7   315.8 5.7
2001-12-17 07:59:17 51°13.688 2°55.905 137.7   263.4 5.7
2001-12-17 07:59:21 51°13.688 2°55.905 137.5   285.2 5.7
2001-12-17 07:59:26 51°13.688 2°55.905 137.5   294.9 5.6
2001-12-17 07:59:32 51°13.688 2°55.905 137.5   285.4 5.6
2001-12-17 07:59:37 51°13.688 2°55.905 137.5   9.4 5.6
2001-12-17 07:59:42 51°13.688 2°55.905 137.5 0.1 13.4 5.6
2001-12-17 07:59:47 51°13.688 2°55.905 137.3   37.4 5.6
2001-12-17 07:59:52 51°13.688 2°55.905 137.3   66.9 5.6
2001-12-17 07:59:57 51°13.688 2°55.905 137.3   96.8 5.7
2001-12-17 08:00:01 51°13.688 2°55.905 137.3   114 5.7
2001-12-17 08:00:07 51°13.688 2°55.905 137.3   265.4 5.7
2001-12-17 08:00:12 51°13.688 2°55.904 137.2   258.6 5.7
2001-12-17 08:00:17 51°13.688 2°55.905 137.2   357.8 5.6
2001-12-17 08:00:22 51°13.688 2°55.905 137.2   49.1 5.6
2001-12-17 08:00:27 51°13.688 2°55.904 137.2   178.8 5.6
2001-12-17 08:00:31 51°13.688 2°55.905 137.2   156.9 5.6
2001-12-17 08:00:36 51°13.688 2°55.904 137.2   135.4 5.6
2001-12-17 08:00:41 51°13.688 2°55.904 137   324.3 5.6
2001-12-17 08:00:47 51°13.688 2°55.904 137   318.6 5.7
2001-12-17 08:00:52 51°13.688 2°55.904 137   334.3 5.7
2001-12-17 08:00:57 51°13.688 2°55.904 137   70.1 5.7
2001-12-17 08:01:01 51°13.688 2°55.904 137   105.2 5.7
2001-12-17 08:01:07 51°13.688 2°55.904 137   167 5.6
2001-12-17 08:01:12 51°13.688 2°55.904 136.8   4 5.6
2001-12-17 08:01:17 51°13.688 2°55.904 136.8   342.2 5.6
2001-12-17 08:01:21 51°13.688 2°55.904 136.8   237.5 5.7
2001-12-17 08:01:27 51°13.688 2°55.904 136.8   209 5.6
2001-12-17 08:01:32 51°13.688 2°55.904 136.8   225.5 5.6
2001-12-17 08:01:37 51°13.688 2°55.904 136.7   278.7 5.7
2001-12-17 08:01:42 51°13.688 2°55.905 136.7   188.3 5.7
2001-12-17 08:01:47 51°13.688 2°55.904 136.7   148.3 5.7
2001-12-17 08:01:52 51°13.688 2°55.904 136.7   101.2 5.7
2001-12-17 08:01:57 51°13.688 2°55.904 136.7   22.9 5.7
2001-12-17 08:02:02 51°13.688 2°55.904 136.5   142.6 5.7
2001-12-17 08:02:07 51°13.688 2°55.905 136.5   358.8 5.7
2001-12-17 08:02:12 51°13.688 2°55.905 136.5   47.8 5.7
2001-12-17 08:02:17 51°13.688 2°55.905 136.5   152 5.6
2001-12-17 08:02:22 51°13.688 2°55.905 136.5   287.4 5.7
2001-12-17 08:02:27 51°13.688 2°55.905 136.5   284.2 5.7
2001-12-17 08:02:32 51°13.688 2°55.905 136.3   256.1 5.6
2001-12-17 08:02:36 51°13.688 2°55.905 136.3   292.2 5.6
2001-12-17 08:02:42 51°13.688 2°55.905 136.3   309.1 5.7
2001-12-17 08:02:47 51°13.688 2°55.905 136.3   75.8 5.7
2001-12-17 08:02:52 51°13.688 2°55.905 136.3   93.6 5.7
2001-12-17 08:02:57 51°13.688 2°55.905 136.2   115 5.7
2001-12-17 08:03:02 51°13.688 2°55.905 136.2   278.1 5.7
2001-12-17 08:03:07 51°13.688 2°55.905 136.2   286.2 5.7
2001-12-17 08:03:12 51°13.688 2°55.905 136.2   281.6 5.7
2001-12-17 08:03:17 51°13.688 2°55.905 136.2   52.6 5.7
2001-12-17 08:03:22 51°13.688 2°55.905 136   82.2 5.7
2001-12-17 08:03:27 51°13.688 2°55.905 136   129.5 5.6
2001-12-17 08:03:32 51°13.688 2°55.905 136   149.7 5.7
2001-12-17 08:03:37 51°13.688 2°55.905 136   146.6 5.7
2001-12-17 08:03:41 51°13.688 2°55.905 136   148.5 5.7
2001-12-17 08:03:47 51°13.688 2°55.905 135.8   145.2 5.7
2001-12-17 08:03:52 51°13.688 2°55.905 135.8   191.9 5.7
2001-12-17 08:03:57 51°13.688 2°55.905 135.8   56.2 5.7
2001-12-17 08:04:02 51°13.688 2°55.905 135.8   192.7 5.7
2001-12-17 08:04:07 51°13.688 2°55.905 135.8   135.6 5.7
2001-12-17 08:04:12 51°13.688 2°55.905 135.7   108 5.7
2001-12-17 08:04:17 51°13.689 2°55.905 135.7   176.3 5.7
2001-12-17 08:04:22 51°13.689 2°55.904 135.7   265.5 5.7
2001-12-17 08:04:27 51°13.689 2°55.904 135.7   268.1 5.7
2001-12-17 08:04:32 51°13.689 2°55.905 135.7   258.5 5.7
2001-12-17 08:04:37 51°13.689 2°55.905 135.5   293.2 5.7
2001-12-17 08:04:42 51°13.688 2°55.905 135.5   308.7 5.7
2001-12-17 08:04:47 51°13.688 2°55.905 135.5   338.1 5.7
2001-12-17 08:04:52 51°13.688 2°55.905 135.5   346.7 5.7
2001-12-17 08:04:57 51°13.688 2°55.905 135.5   359.3 5.7
2001-12-17 08:05:01 51°13.688 2°55.904 135.3   301.4 5.7
2001-12-17 08:05:07 51°13.689 2°55.904 135.3   284.2 5.7
2001-12-17 08:05:12 51°13.689 2°55.904 135.3   286.2 5.7
2001-12-17 08:05:17 51°13.689 2°55.905 135.3   284.5 5.7
2001-12-17 08:05:22 51°13.689 2°55.905 135.3   298.6 5.7
2001-12-17 08:05:27 51°13.689 2°55.905 135.2   60.4 5.7
2001-12-17 08:05:32 51°13.689 2°55.905 135.2   75.4 5.7
2001-12-17 08:05:37 51°13.689 2°55.904 135.2   57.3 5.7
2001-12-17 08:05:42 51°13.689 2°55.904 135.2   281.8 5.7
2001-12-17 08:05:47 51°13.689 2°55.905 135.2   347.6 5.7
2001-12-17 08:05:52 51°13.689 2°55.904 135   16 5.7
2001-12-17 08:05:57 51°13.689 2°55.904 135   68.8 5.7
2001-12-17 08:06:02 51°13.689 2°55.904 135   124.4 5.7
2001-12-17 08:06:07 51°13.689 2°55.904 135   70.4 5.7
2001-12-17 08:06:12 51°13.689 2°55.904 135   24 5.7
2001-12-17 08:06:17 51°13.689 2°55.904 134.8   2.1 5.7
2001-12-17 08:06:21 51°13.689 2°55.904 134.8   314.3 5.7
2001-12-17 08:06:26 51°13.689 2°55.904 134.8   65.6 5.7
2001-12-17 08:06:32 51°13.689 2°55.904 134.8   13.8 5.7
2001-12-17 08:06:37 51°13.689 2°55.904 134.8   277.9 5.7
2001-12-17 08:06:41 51°13.689 2°55.904 134.7   245.1 5.7
2001-12-17 08:06:47 51°13.689 2°55.904 134.7   291 5.7
2001-12-17 08:06:51 51°13.689 2°55.904 134.7   306.3 5.7
2001-12-17 08:06:57 51°13.689 2°55.904 134.7   318.7 5.7
2001-12-17 08:07:01 51°13.689 2°55.904 134.7   324.5 5.7
2001-12-17 08:07:07 51°13.689 2°55.904 134.5   126.6 5.7
2001-12-17 08:07:12 51°13.689 2°55.904 134.5   188.4 5.7
2001-12-17 08:07:17 51°13.689 2°55.904 134.5   227.3 5.7
2001-12-17 08:07:21 51°13.689 2°55.904 134.5   175.5 5.7
2001-12-17 08:07:27 51°13.689 2°55.904 134.5   139.5 5.7
2001-12-17 08:07:32 51°13.689 2°55.904 134.3   105.7 5.7
2001-12-17 08:07:37 51°13.689 2°55.904 134.3   335.4 5.7
2001-12-17 08:07:42 51°13.689 2°55.904 134.3   311.4 5.7
2001-12-17 08:07:47 51°13.689 2°55.904 134.3   308.7 5.7
2001-12-17 08:07:52 51°13.689 2°55.904 134.2   313.8 5.7
2001-12-17 08:07:57 51°13.689 2°55.904 134.2   359.4 5.7
2001-12-17 08:08:02 51°13.689 2°55.904 134.2   43 5.7
2001-12-17 08:08:07 51°13.689 2°55.904 134.2   75.9 5.7
2001-12-17 08:08:12 51°13.689 2°55.904 134.2   177.3 5.7
2001-12-17 08:08:17 51°13.689 2°55.904 134   201.9 5.7
2001-12-17 08:08:22 51°13.689 2°55.904 134   179.7 5.7
2001-12-17 08:08:27 51°13.689 2°55.904 134   152.3 5.7
2001-12-17 08:08:32 51°13.689 2°55.904 134   149.2 5.7
2001-12-17 08:08:37 51°13.689 2°55.904 134   63.2 5.7
2001-12-17 08:08:42 51°13.689 2°55.904 133.8   29.9 5.7
2001-12-17 08:08:46 51°13.689 2°55.904 133.8   101 5.7
2001-12-17 08:08:52 51°13.689 2°55.904 133.8   107.4 5.7
2001-12-17 08:08:57 51°13.689 2°55.904 133.8   100.3 5.7
2001-12-17 08:09:02 51°13.689 2°55.904 133.8   139 5.7
2001-12-17 08:09:07 51°13.689 2°55.904 133.7   133.2 5.7
2001-12-17 08:09:12 51°13.689 2°55.904 133.7   140.7 5.7
2001-12-17 08:09:16 51°13.689 2°55.904 133.7   336.3 5.7
2001-12-17 08:09:21 51°13.689 2°55.904 133.7   350.9 5.7
2001-12-17 08:09:27 51°13.689 2°55.904 133.5   313.5 5.7
2001-12-17 08:09:32 51°13.689 2°55.904 133.5   204.7 5.7
2001-12-17 08:09:37 51°13.689 2°55.904 133.5   196.1 5.7
2001-12-17 08:09:42 51°13.689 2°55.905 133.5   56 5.7
2001-12-17 08:09:47 51°13.689 2°55.904 133.5   14.7 5.7
2001-12-17 08:09:52 51°13.689 2°55.904 133.5   1 5.7
2001-12-17 08:09:57 51°13.689 2°55.904 133.3   257.7 5.7
2001-12-17 08:10:01 51°13.689 2°55.904 133.3   316.5 5.7
2001-12-17 08:10:07 51°13.689 2°55.905 133.3   151 5.7
2001-12-17 08:10:12 51°13.689 2°55.905 133.3   146.3 5.7
2001-12-17 08:10:17 51°13.689 2°55.904 133.2   173.7 5.7
2001-12-17 08:10:22 51°13.689 2°55.904 133.3   282.1 5.7
2001-12-17 08:10:26 51°13.689 2°55.904 133.2   280.7 5.7
2001-12-17 08:10:32 51°13.689 2°55.904 133.2   176.6 5.7
2001-12-17 08:10:37 51°13.689 2°55.904 133   187.2 5.7
2001-12-17 08:10:42 51°13.689 2°55.904 133   273.5 5.7
2001-12-17 08:10:47 51°13.689 2°55.904 133 0.1 277.9 5.7
2001-12-17 08:10:52 51°13.689 2°55.904 133   274 5.7
2001-12-17 08:10:56 51°13.689 2°55.904 132.8   268.2 5.7
2001-12-17 08:11:02 51°13.689 2°55.904 132.8 0.1 259.6 5.7
2001-12-17 08:11:07 51°13.689 2°55.904 133 0.1 248.2 5.7
2001-12-17 08:11:12 51°13.689 2°55.904 133 0.1 258.1 5.7
2001-12-17 08:11:17 51°13.689 2°55.903 133.2 0.1 249.8 5.8
2001-12-17 08:11:21 51°13.689 2°55.903 133.2 0.1 260.4 5.8
2001-12-17 08:11:27 51°13.689 2°55.903 133 0.1 259.4 5.8
2001-12-17 08:11:31 51°13.689 2°55.903 133 0.1 257.4 5.8
2001-12-17 08:11:36 51°13.689 2°55.903 132.8   260.3 5.8
2001-12-17 08:11:42 51°13.688 2°55.903 132.7   164.2 5.8
2001-12-17 08:11:47 51°13.688 2°55.903 132.3 0.1 160.8 5.8
2001-12-17 08:11:52 51°13.688 2°55.903 131.8 0.1 146.4 5.8
2001-12-17 08:11:57 51°13.688 2°55.903 131 0.1 95.2 5.4
2001-12-17 08:12:02 51°13.688 2°55.904 130.2 0.1 99.4 5.8
2001-12-17 08:12:06 51°13.688 2°55.904 129 0.1 89.1 5.8
2001-12-17 08:12:12 51°13.688 2°55.904 127.8 0.1 83.6 5.8
2001-12-17 08:12:17 51°13.688 2°55.904 126.7 0.1 70.6 5.7
2001-12-17 08:12:22 51°13.688 2°55.904 125.7   69.7 5.7
2001-12-17 08:12:27 51°13.688 2°55.904 124.8   61.1 5.7
2001-12-17 08:12:32 51°13.688 2°55.904 124.2   79.8 5.7
2001-12-17 08:12:37 51°13.688 2°55.905 123.8   170.9 5.7
2001-12-17 08:12:42 51°13.688 2°55.904 123.8   267.3 5.7
2001-12-17 08:12:47 51°13.688 2°55.904 123.8   235.1 5.7
2001-12-17 08:12:52 51°13.688 2°55.904 123.7   233 5.8
2001-12-17 08:12:57 51°13.688 2°55.904 123.5   181.6 5.8
2001-12-17 08:13:01 51°13.688 2°55.904 123.2   195.8 5.7
2001-12-17 08:13:07 51°13.688 2°55.904 122.8 0.1 208.7 5.8
2001-12-17 08:13:12 51°13.688 2°55.904 122.5 0.1 210.5 5.8
2001-12-17 08:13:17 51°13.688 2°55.904 122.2   219.3 5.8
2001-12-17 08:13:22 51°13.688 2°55.904 121.8   271.4 5.8
2001-12-17 08:13:27 51°13.688 2°55.904 121.3   226.4 5.8
2001-12-17 08:13:32 51°13.688 2°55.904 121   188.4 5.8
2001-12-17 08:13:37 51°13.688 2°55.904 120.5 0.1 200.4 5.8
2001-12-17 08:13:42 51°13.687 2°55.904 120 0.1 189.8 5.8
2001-12-17 08:13:47 51°13.687 2°55.904 119.7 0.2 180.7 5.8
2001-12-17 08:13:52 51°13.688 2°55.904 119.2 0.2 184.6 5.8
2001-12-17 08:13:57 51°13.688 2°55.904 118.7 0.1 194.8 5.8
2001-12-17 08:14:02 51°13.688 2°55.904 118.3 0.1 214.1 5.8
2001-12-17 08:14:07 51°13.688 2°55.904 117.8 0.1 215.9 5.8
2001-12-17 08:14:12 51°13.688 2°55.904 117.5   226.9 5.9
2001-12-17 08:14:17 51°13.688 2°55.904 117   204.1 5.9
2001-12-17 08:14:22 51°13.688 2°55.904 116.5 0.1 178.9 5.9
2001-12-17 08:14:27 51°13.688 2°55.904 116 0.1 174.6 5.9
2001-12-17 08:14:32 51°13.688 2°55.904 115.5 0.1 173.2 5.9
2001-12-17 08:14:37 51°13.687 2°55.904 115 0.1 197.5 5.9
2001-12-17 08:14:41 51°13.688 2°55.904 114.7 0.1 226.5 5.9
2001-12-17 08:14:47 51°13.688 2°55.904 114.2 0.1 215.5 5.9
2001-12-17 08:14:52 51°13.687 2°55.904 113.8 0.1 191.4 5.9
2001-12-17 08:14:57 51°13.687 2°55.904 113.5 0.1 174.1 5.9
2001-12-17 08:15:02 51°13.687 2°55.904 113 0.1 164 6
2001-12-17 08:15:07 51°13.687 2°55.904 112.7 0.1 155.1 6
2001-12-17 08:15:12 51°13.687 2°55.904 112.2   160.4 6
2001-12-17 08:15:17 51°13.687 2°55.904 111.8   231 6
2001-12-17 08:15:22 51°13.687 2°55.904 111.3   226.7 6
2001-12-17 08:15:27 51°13.687 2°55.904 111 0.1 218 6
2001-12-17 08:15:31 51°13.687 2°55.904 110.5 0.1 207.3 6
2001-12-17 08:15:36 51°13.687 2°55.904 110.2   216.1 6
2001-12-17 08:15:42 51°13.687 2°55.904 109.7   227.8 6
2001-12-17 08:15:47 51°13.687 2°55.904 109.3   231.5 6
2001-12-17 08:15:52 51°13.687 2°55.904 109   219.6 6.1
2001-12-17 08:15:57 51°13.687 2°55.904 108.7   218 6.1
2001-12-17 08:16:02 51°13.687 2°55.904 108.3   216.7 6.1
2001-12-17 08:16:06 51°13.687 2°55.904 108   208 6.1
2001-12-17 08:16:12 51°13.687 2°55.904 107.7   210.8 6.1
2001-12-17 08:16:17 51°13.687 2°55.904 107.7 0.1 337.7 6.1
2001-12-17 08:16:22 51°13.687 2°55.903 107.8 0.1 311.5 6
2001-12-17 08:16:27 51°13.687 2°55.903 107.7 0.2 304.2 6
2001-12-17 08:16:32 51°13.687 2°55.902 107.2 0.4 297.2 6
2001-12-17 08:16:37 51°13.688 2°55.9 106.7 0.6 293.6 5.5
2001-12-17 08:16:42 51°13.688 2°55.898 106.2 0.8 291 6.1
2001-12-17 08:16:47 51°13.689 2°55.896 105.5 0.9 290.3 6.2
2001-12-17 08:16:52 51°13.689 2°55.893 104.8 1.2 288.4 6.2
2001-12-17 08:16:57 51°13.69 2°55.89 104.3 1.4 287.4 -999
2001-12-17 08:17:03 51°13.691 2°55.886 103.8 1.5 286.2 -999
2001-12-17 08:17:08 51°13.692 2°55.881 103.5 1.8 284.4 -999
2001-12-17 08:17:13 51°13.693 2°55.877 103.2 2 283.9 -999
2001-12-17 08:17:18 51°13.694 2°55.872 103 2.2 282.7 -999
2001-12-17 08:17:22 51°13.694 2°55.867 102.8 2.4 283 -999
2001-12-17 08:17:28 51°13.695 2°55.86 102.3 2.6 283 -999
2001-12-17 08:17:33 51°13.696 2°55.854 101.7 2.8 283.1 -999
2001-12-17 08:17:38 51°13.697 2°55.848 100.7 2.9 283.3 -999
2001-12-17 08:17:43 51°13.698 2°55.842 99.3 2.9 283.1 -999
2001-12-17 08:17:48 51°13.699 2°55.835 98 2.9 282.7 -999
2001-12-17 08:17:52 51°13.7 2°55.83 96.3 2.9 282.2 8
2001-12-17 08:17:57 51°13.7 2°55.824 94.8 2.9 281.2 8.6
2001-12-17 08:18:02 51°13.701 2°55.818 93.5 2.9 279.6 -999
2001-12-17 08:18:07 51°13.701 2°55.812 92.2 2.9 278 9.1
2001-12-17 08:18:12 51°13.702 2°55.805 90.8 2.9 277.1 -999
2001-12-17 08:18:17 51°13.703 2°55.799 89.5 2.8 276.1 9.6
2001-12-17 08:18:22 51°13.703 2°55.793 88 2.8 275.4 9.8
2001-12-17 08:18:27 51°13.704 2°55.787 86.8 2.7 274.8 10.3
2001-12-17 08:18:32 51°13.704 2°55.782 85.7 2.6 274.2 11
2001-12-17 08:18:37 51°13.704 2°55.776 84.3 2.5 274 11.5
2001-12-17 08:18:42 51°13.704 2°55.771 83 2.4 273.9 11.8
2001-12-17 08:18:47 51°13.704 2°55.766 81.7 2.4 274.8 12.4
2001-12-17 08:18:52 51°13.704 2°55.761 80.3 2.3 274.8 12.7
2001-12-17 08:18:57 51°13.704 2°55.756 79 2.2 273.5 12.7
2001-12-17 08:19:02 51°13.704 2°55.751 77.7 2.1 271.5 12.1
2001-12-17 08:19:07 51°13.703 2°55.747 75.8 2.1 270.8 12.2
2001-12-17 08:19:12 51°13.703 2°55.742 74.3 2 269.8 12.3
2001-12-17 08:19:17 51°13.703 2°55.738 72.7 1.9 267 12.2
2001-12-17 08:19:22 51°13.702 2°55.734 71.2 1.8 266.1 11.9
2001-12-17 08:19:27 51°13.702 2°55.731 69.5 1.7 265.4 12
2001-12-17 08:19:32 51°13.701 2°55.727 68 1.6 263.4 11.5
2001-12-17 08:19:37 51°13.701 2°55.724 66.3 1.6 262.4 11.4
2001-12-17 08:19:42 51°13.701 2°55.722 63.7 1.3 264 11.3
2001-12-17 08:19:47 51°13.701 2°55.721 59.2 0.8 277.9 11.5
2001-12-17 08:19:51 51°13.702 2°55.722 52.5 0.6 334.8 11.4
2001-12-17 08:19:57 51°13.705 2°55.723 44 1.2 17.4 11.1
2001-12-17 08:20:02 51°13.708 2°55.725 34.7 1.9 21.4 10.8
2001-12-17 08:20:07 51°13.712 2°55.727 24.2 2.8 17.8 10.1
2001-12-17 08:20:12 51°13.718 2°55.727 14.2 3.4 11.2 9.7
2001-12-17 08:20:17 51°13.725 2°55.727 5 4 5.1 9.2
2001-12-17 08:20:22 51°13.732 2°55.724 356 4.8 354.9 -999
2001-12-17 08:20:27 51°13.74 2°55.72 347.2 5.5 347.5 8.8
2001-12-17 08:20:32 51°13.747 2°55.715 340 5.9 340.6 8.9
2001-12-17 08:20:37 51°13.755 2°55.709 336.7 6.1 334.8 8.7
2001-12-17 08:20:42 51°13.762 2°55.702 334.3 6 332.5 8.7
2001-12-17 08:20:47 51°13.769 2°55.696 332.8 6 330.3 8.8
2001-12-17 08:20:52 51°13.776 2°55.689 331.8 5.9 329.1 9
2001-12-17 08:20:57 51°13.783 2°55.682 331 5.9 328.5 9.1
2001-12-17 08:21:02 51°13.79 2°55.676 330.2 5.9 327.8 9.2
2001-12-17 08:21:07 51°13.797 2°55.669 330 5.8 327.9 9.2
2001-12-17 08:21:12 51°13.803 2°55.662 330.5 5.8 328.2 9.2
2001-12-17 08:21:16 51°13.809 2°55.657 330.8 5.8 328.6 9.1
2001-12-17 08:21:22 51°13.817 2°55.649 331.3 5.8 329 9
2001-12-17 08:21:27 51°13.824 2°55.643 331.8 5.7 329.8 8.8
2001-12-17 08:21:32 51°13.831 2°55.637 332.3 5.7 330.1 7.2
2001-12-17 08:21:37 51°13.838 2°55.631 333 5.7 330.9 8.2
2001-12-17 08:21:42 51°13.845 2°55.625 333.8 5.7 331.7 8.4
2001-12-17 08:21:47 51°13.852 2°55.619 335 5.7 332.4 8.3
2001-12-17 08:21:52 51°13.859 2°55.613 335.7 5.7 333.5 8.9
2001-12-17 08:21:57 51°13.866 2°55.608 336 5.7 333.9 8.9
2001-12-17 08:22:02 51°13.873 2°55.602 336.2 5.7 334.4 8.9
2001-12-17 08:22:07 51°13.88 2°55.597 336.5 5.7 334.8 8.9
2001-12-17 08:22:12 51°13.887 2°55.591 336.8 5.7 335.2 8.9
2001-12-17 08:22:16 51°13.893 2°55.587 337.3 5.7 335.5 8.8
2001-12-17 08:22:22 51°13.902 2°55.582 337.5 5.6 335.7 8.8
2001-12-17 08:22:27 51°13.909 2°55.577 337.3 5.6 335.7 8.9
2001-12-17 08:22:31 51°13.915 2°55.573 337.2 5.6 335.9 8.8
2001-12-17 08:22:37 51°13.923 2°55.567 337 5.6 335.8 8.9
2001-12-17 08:22:42 51°13.93 2°55.561 337 5.7 335.7 8.7
2001-12-17 08:22:47 51°13.937 2°55.556 337.2 5.7 335.6 -999
2001-12-17 08:22:52 51°13.944 2°55.55 337.3 5.7 335.5 -999
2001-12-17 08:22:57 51°13.952 2°55.545 337.2 5.7 335.5 8.5
2001-12-17 08:23:02 51°13.959 2°55.54 337 5.7 335.5 8.8
2001-12-17 08:23:07 51°13.966 2°55.535 337.3 5.7 336.2 8.7
2001-12-17 08:23:12 51°13.973 2°55.53 337.8 5.6 336.5 8.8
2001-12-17 08:23:17 51°13.98 2°55.526 338.3 5.6 337.1 8.8
2001-12-17 08:23:22 51°13.988 2°55.521 338 5.6 336.9 8.8
2001-12-17 08:23:27 51°13.995 2°55.516 337.8 5.7 336.7 8.8
2001-12-17 08:23:32 51°14.002 2°55.511 337.5 5.7 336.4 8.8
2001-12-17 08:23:37 51°14.009 2°55.506 337.2 5.7 336.5 8.7
2001-12-17 08:23:42 51°14.016 2°55.501 337.5 5.7 336.6 8.8
2001-12-17 08:23:47 51°14.024 2°55.496 337.8 5.6 336.7 8.8
2001-12-17 08:23:52 51°14.031 2°55.491 338.2 5.6 336.7 8.8
2001-12-17 08:23:57 51°14.038 2°55.485 337.8 5.6 336.5 8.8
2001-12-17 08:24:02 51°14.045 2°55.48 337.7 5.6 336.2 8.8
2001-12-17 08:24:07 51°14.052 2°55.475 337.3 5.6 335.5 8.8
2001-12-17 08:24:12 51°14.059 2°55.47 337 5.6 335.4 8.8
2001-12-17 08:24:17 51°14.066 2°55.465 336.5 5.6 334.9 8.7
2001-12-17 08:24:22 51°14.073 2°55.459 336.2 5.6 334.5 8.7
2001-12-17 08:24:26 51°14.079 2°55.455 335.7 5.6 333.9 8.7
2001-12-17 08:24:32 51°14.087 2°55.448 335.2 5.6 333.5 8.7
2001-12-17 08:24:37 51°14.094 2°55.442 335.2 5.6 333 8.7
2001-12-17 08:24:42 51°14.101 2°55.437 335.7 5.6 333.4 8.7
2001-12-17 08:24:46 51°14.107 2°55.433 335.8 5.6 333.5 8.8
2001-12-17 08:24:52 51°14.115 2°55.426 335.5 5.6 333.8 8.7
2001-12-17 08:24:57 51°14.122 2°55.421 334.8 5.6 333.3 8.7
2001-12-17 08:25:02 51°14.129 2°55.415 334.2 5.6 333 8.7
2001-12-17 08:25:06 51°14.134 2°55.41 333.5 5.6 332.6 8.7
2001-12-17 08:25:12 51°14.142 2°55.404 333 5.6 332.1 8.7
2001-12-17 08:25:17 51°14.149 2°55.398 332.7 5.6 331.9 8.8
2001-12-17 08:25:21 51°14.154 2°55.393 332.3 5.6 331.6 8.7
2001-12-17 08:25:27 51°14.162 2°55.386 332 5.5 331.2 8.7
2001-12-17 08:25:31 51°14.168 2°55.381 331.7 5.5 330.8 8.8
2001-12-17 08:25:36 51°14.175 2°55.375 331.2 5.5 330.5 8.8
2001-12-17 08:25:42 51°14.182 2°55.367 330.5 5.5 329.8 8.8
2001-12-17 08:25:47 51°14.189 2°55.361 329.5 5.5 328.8 8.8
2001-12-17 08:25:52 51°14.196 2°55.354 328 5.6 328.1 8.8
2001-12-17 08:25:57 51°14.202 2°55.347 326 5.7 326.8 8.8
2001-12-17 08:26:02 51°14.209 2°55.339 323.8 5.9 324.2 8.8
2001-12-17 08:26:07 51°14.216 2°55.33 321.7 6.1 321.5 8.8
2001-12-17 08:26:11 51°14.221 2°55.323 320.2 6.2 320.1 8.8
2001-12-17 08:26:16 51°14.228 2°55.313 319 6.5 318.9 8.9
2001-12-17 08:26:22 51°14.236 2°55.3 318 6.8 317.2 8.9
2001-12-17 08:26:27 51°14.243 2°55.289 316.8 7.2 315.8 8.9
2001-12-17 08:26:32 51°14.251 2°55.277 315.7 7.4 315.1 8.9
2001-12-17 08:26:37 51°14.258 2°55.264 314.5 7.7 313.8 8.9
2001-12-17 08:26:42 51°14.266 2°55.251 313.5 7.9 313.1 8.9
2001-12-17 08:26:47 51°14.273 2°55.238 313 8.1 312.2 9
2001-12-17 08:26:51 51°14.28 2°55.227 312.7 8.2 311.9 9
2001-12-17 08:26:57 51°14.289 2°55.21 312.3 8.4 311.2 9
2001-12-17 08:27:02 51°14.297 2°55.196 311.5 8.5 310.7 8.9
2001-12-17 08:27:07 51°14.304 2°55.18 310.7 8.7 310 9
2001-12-17 08:27:12 51°14.312 2°55.164 309.7 9 309 8.9
2001-12-17 08:27:17 51°14.32 2°55.148 309.5 9.2 308.2 8.9
2001-12-17 08:27:22 51°14.328 2°55.131 309.8 9.4 308.1 8.7
2001-12-17 08:27:27 51°14.337 2°55.114 310.2 9.7 308.6 8.7
2001-12-17 08:27:32 51°14.346 2°55.096 310.2 10 308.6 8.9
2001-12-17 08:27:37 51°14.355 2°55.077 309.8 10.4 308.4 8.9
2001-12-17 08:27:42 51°14.365 2°55.058 309.5 11 308.2 8.7
2001-12-17 08:27:47 51°14.375 2°55.037 309.2 11.5 308.1 8.5
2001-12-17 08:27:52 51°14.385 2°55.016 308.8 11.8 307.7 8.6
2001-12-17 08:27:57 51°14.395 2°54.995 308.3 12 307.1 8.8
2001-12-17 08:28:01 51°14.403 2°54.977 306.7 12.2 305.4 8.8
2001-12-17 08:28:07 51°14.412 2°54.948 301.5 12.3 300.6 8.7
2001-12-17 08:28:12 51°14.418 2°54.922 294.7 12.3 295.6 8.5
2001-12-17 08:28:17 51°14.422 2°54.895 288.2 12.5 287 8.6
2001-12-17 08:28:22 51°14.425 2°54.868 282 12.6 282.2 8.4
2001-12-17 08:28:27 51°14.426 2°54.84 276.5 12.7 276.8 8.5
2001-12-17 08:28:31 51°14.426 2°54.817 271.8 12.8 272.3 8.5
2001-12-17 08:28:37 51°14.425 2°54.782 269.5 12.9 268.3 8.5
2001-12-17 08:28:42 51°14.424 2°54.753 268.5 13.1 267.3 8.4
2001-12-17 08:28:47 51°14.423 2°54.724 268.3 13.2 266.8 8.5
2001-12-17 08:28:52 51°14.421 2°54.695 268.7 13.3 266.6 8.5
2001-12-17 08:28:57 51°14.42 2°54.666 267.3 13.3 266.5 8.5
2001-12-17 08:29:02 51°14.417 2°54.637 263.7 13.3 263.7 8.5
2001-12-17 08:29:07 51°14.412 2°54.608 258 13.3 258.4 8.4
2001-12-17 08:29:12 51°14.405 2°54.58 252.2 13.4 253.8 8.4
2001-12-17 08:29:17 51°14.398 2°54.552 249.2 13.5 250.3 8.4
2001-12-17 08:29:22 51°14.39 2°54.525 246.3 13.5 246.8 8.4
2001-12-17 08:29:27 51°14.382 2°54.499 244 13.5 244.3 8.4
2001-12-17 08:29:32 51°14.373 2°54.472 242.5 13.5 242.8 8.3
2001-12-17 08:29:37 51°14.364 2°54.446 242.2 13.6 242.1 8
2001-12-17 08:29:42 51°14.355 2°54.419 243 13.7 242.2 7.7
2001-12-17 08:29:47 51°14.347 2°54.392 243.3 13.7 243 7.8
2001-12-17 08:29:52 51°14.339 2°54.365 244.3 13.7 243.4 7.8
2001-12-17 08:29:57 51°14.331 2°54.337 245.7 13.7 244.8 7.8
2001-12-17 08:30:02 51°14.323 2°54.309 246.8 13.7 245.5 -999
2001-12-17 08:30:07 51°14.316 2°54.282 247.7 13.7 246.5 7.7
2001-12-17 08:30:12 51°14.308 2°54.254 247.2 13.7 246.6 7.6
2001-12-17 08:30:17 51°14.3 2°54.227 246.5 13.7 246 7.6
2001-12-17 08:30:22 51°14.292 2°54.199 246.3 13.7 245.5 7.5
2001-12-17 08:30:27 51°14.284 2°54.172 246.2 13.7 245.3 7.5
2001-12-17 08:30:32 51°14.276 2°54.144 246 13.8 245.6 7.4
2001-12-17 08:30:37 51°14.268 2°54.116 246.3 13.8 245.6 7.6
2001-12-17 08:30:41 51°14.262 2°54.094 246.3 13.8 245.4 7.6
2001-12-17 08:30:47 51°14.252 2°54.061 245.8 13.8 245.1 7.5
2001-12-17 08:30:51 51°14.245 2°54.039 245 13.8 244.5 7.5
2001-12-17 08:30:57 51°14.235 2°54.006 244.3 13.8 243.8 7.3
2001-12-17 08:31:02 51°14.226 2°53.979 244.2 13.8 243.6 7.5
2001-12-17 08:31:07 51°14.217 2°53.952 244 13.9 243.1 7.4
2001-12-17 08:31:12 51°14.209 2°53.924 243.8 13.9 243.2 7.3
2001-12-17 08:31:17 51°14.2 2°53.897 243.5 13.9 243 7.5
2001-12-17 08:31:22 51°14.191 2°53.87 243.7 13.9 243.1 7.5
2001-12-17 08:31:27 51°14.183 2°53.842 244.2 13.9 243.2 7.6
2001-12-17 08:31:32 51°14.174 2°53.815 244.5 13.9 243.5 7.6
2001-12-17 08:31:37 51°14.166 2°53.787 244.7 13.9 243.9 7.6
2001-12-17 08:31:41 51°14.159 2°53.765 244.8 13.9 243.9 7.6
2001-12-17 08:31:47 51°14.149 2°53.732 244.8 13.9 244 7.5
2001-12-17 08:31:52 51°14.14 2°53.705 244.2 13.9 243.5 7.5
2001-12-17 08:31:57 51°14.131 2°53.677 243.5 14 242.6 7.7
2001-12-17 08:32:02 51°14.122 2°53.65 243.2 14 242.1 7.7
2001-12-17 08:32:07 51°14.112 2°53.623 242.3 14 241.8 7.7
2001-12-17 08:32:12 51°14.103 2°53.595 242.2 14.1 241.2 7.6
2001-12-17 08:32:17 51°14.094 2°53.568 242.3 14.1 241.4 7.6
2001-12-17 08:32:22 51°14.085 2°53.54 242.7 14.1 241.9 7.3
2001-12-17 08:32:27 51°14.075 2°53.513 242.7 14.1 241.8 7.9
2001-12-17 08:32:32 51°14.066 2°53.485 242.8 14.2 242.6 7.9
2001-12-17 08:32:37 51°14.057 2°53.457 243.2 14.2 242.5 7.8
2001-12-17 08:32:42 51°14.048 2°53.429 243.3 14.2 242.5 8
2001-12-17 08:32:47 51°14.039 2°53.401 243 14.2 242.5 8
2001-12-17 08:32:52 51°14.03 2°53.373 243 14.3 242.2 7.9
2001-12-17 08:32:57 51°14.02 2°53.346 243 14.3 242 7.9
2001-12-17 08:33:02 51°14.011 2°53.318 243 14.3 241.9 7.9
2001-12-17 08:33:07 51°14.002 2°53.29 242.8 14.3 242.2 8
2001-12-17 08:33:12 51°13.993 2°53.262 242.8 14.3 242.2 8.2
2001-12-17 08:33:17 51°13.983 2°53.234 243 14.3 241.9 8.1
2001-12-17 08:33:22 51°13.974 2°53.206 242.3 14.3 242.3 8.2
2001-12-17 08:33:27 51°13.964 2°53.178 242.5 14.4 241.8 8.3
2001-12-17 08:33:32 51°13.955 2°53.15 242.2 14.4 241.9 8.3
2001-12-17 08:33:37 51°13.945 2°53.121 242.3 14.5 241.6 8.3
2001-12-17 08:33:42 51°13.936 2°53.093 243 14.5 242 8.4
2001-12-17 08:33:46 51°13.928 2°53.071 243.3 14.5 242.1 8.3
2001-12-17 08:33:52 51°13.917 2°53.036 242.8 14.5 242.4 8.1
2001-12-17 08:33:57 51°13.907 2°53.008 242.8 14.6 241.9 8.4
2001-12-17 08:34:02 51°13.898 2°52.979 243 14.6 242.1 8.4
2001-12-17 08:34:07 51°13.889 2°52.951 243.2 14.6 242.1 8.3
2001-12-17 08:34:12 51°13.879 2°52.923 242.5 14.6 241.9 8.5
2001-12-17 08:34:17 51°13.869 2°52.894 242.3 14.6 242 8.5
2001-12-17 08:34:21 51°13.862 2°52.871 242.5 14.6 242 8.4
2001-12-17 08:34:27 51°13.85 2°52.837 242.7 14.6 241.7 8.3
2001-12-17 08:34:32 51°13.841 2°52.808 243.2 14.6 241.8 8.6
2001-12-17 08:34:37 51°13.831 2°52.78 242.5 14.7 242.3 8.5
2001-12-17 08:34:42 51°13.822 2°52.751 243.2 14.7 242.3 8.6
2001-12-17 08:34:47 51°13.812 2°52.722 243 14.6 242.4 8.7
2001-12-17 08:34:52 51°13.803 2°52.694 243 14.7 242.3 8.6
2001-12-17 08:34:57 51°13.793 2°52.665 242.7 14.7 242 8.7
2001-12-17 08:35:02 51°13.784 2°52.636 243.2 14.7 242.1 8.7
2001-12-17 08:35:07 51°13.774 2°52.607 242.8 14.8 241.8 8.8
2001-12-17 08:35:12 51°13.764 2°52.578 242.7 14.8 241.9 8.6
2001-12-17 08:35:17 51°13.755 2°52.549 243 14.9 241.8 8.7
2001-12-17 08:35:22 51°13.745 2°52.521 243 14.8 242 8.7
2001-12-17 08:35:27 51°13.735 2°52.492 243 14.8 241.8 8.9
2001-12-17 08:35:32 51°13.726 2°52.463 243.2 14.8 242.2 8.6
2001-12-17 08:35:37 51°13.716 2°52.434 243 14.8 242.1 9
2001-12-17 08:35:42 51°13.707 2°52.404 243.3 14.9 242.5 8.9
2001-12-17 08:35:47 51°13.697 2°52.375 243.3 14.9 242.2 8.8
2001-12-17 08:35:52 51°13.687 2°52.346 243 14.9 242.5 8.9
2001-12-17 08:35:57 51°13.678 2°52.317 242.8 14.9 242.1 8.9
2001-12-17 08:36:01 51°13.67 2°52.294 243 14.9 242 8.9
2001-12-17 08:36:07 51°13.658 2°52.259 242.8 14.9 241.9 8.8
2001-12-17 08:36:12 51°13.648 2°52.23 242.8 14.9 241.8 8.9
2001-12-17 08:36:17 51°13.638 2°52.201 242.7 15 241.8 8.9
2001-12-17 08:36:22 51°13.629 2°52.171 243 15 241.8 8.9
2001-12-17 08:36:27 51°13.619 2°52.142 242.8 15 241.9 9
2001-12-17 08:36:32 51°13.609 2°52.113 242.8 15 241.9 9
2001-12-17 08:36:37 51°13.6 2°52.083 243.3 15 242.5 8.8
2001-12-17 08:36:42 51°13.59 2°52.054 243 15 241.7 9.1
2001-12-17 08:36:47 51°13.58 2°52.025 242.8 15 242.5 8.9
2001-12-17 08:36:52 51°13.571 2°51.996 242.8 15 242 9
2001-12-17 08:36:57 51°13.561 2°51.966 243.3 15 242.3 9
2001-12-17 08:37:01 51°13.553 2°51.943 242.7 15 242 9.1
2001-12-17 08:37:07 51°13.542 2°51.908 243 15 242.3 8.6
2001-12-17 08:37:11 51°13.533 2°51.885 243 15 242 9
2001-12-17 08:37:17 51°13.522 2°51.849 243 15 242.1 9.1
2001-12-17 08:37:22 51°13.513 2°51.819 243.2 15.1 242.7 9.1
2001-12-17 08:37:27 51°13.503 2°51.79 243.2 15.1 242.6 9.1
2001-12-17 08:37:31 51°13.495 2°51.767 243 15 242.7 9.2
2001-12-17 08:37:37 51°13.484 2°51.731 243 15 242.5 9.2
2001-12-17 08:37:42 51°13.475 2°51.702 243.2 15 242.4 9.2
2001-12-17 08:37:47 51°13.465 2°51.672 243.2 15.1 242.5 9.2
2001-12-17 08:37:52 51°13.455 2°51.643 243.2 15.1 242.4 9.2
2001-12-17 08:37:57 51°13.445 2°51.614 242.5 15.1 242.5 9.2
2001-12-17 08:38:02 51°13.436 2°51.584 243 15 242.6 9.2
2001-12-17 08:38:07 51°13.426 2°51.555 243.2 15 242.1 9.2
2001-12-17 08:38:12 51°13.417 2°51.525 243 15 242.9 9.2
2001-12-17 08:38:17 51°13.407 2°51.495 243.5 15 242.6 9.3
2001-12-17 08:38:22 51°13.397 2°51.466 243.5 15 242.6 9.3
2001-12-17 08:38:27 51°13.388 2°51.437 243 15 242.6 9.3
2001-12-17 08:38:32 51°13.378 2°51.407 243 15 242.2 9.3
2001-12-17 08:38:37 51°13.368 2°51.378 243 15.1 242.3 9.3
2001-12-17 08:38:42 51°13.359 2°51.348 242.8 15 242.4 9.3
2001-12-17 08:38:47 51°13.349 2°51.319 242.8 15 241.9 9.3
2001-12-17 08:38:52 51°13.339 2°51.29 242.5 15 242.2 9.4
2001-12-17 08:38:57 51°13.33 2°51.261 242.7 15 242 9.3
2001-12-17 08:39:02 51°13.32 2°51.231 243.2 15 242 9.4
2001-12-17 08:39:07 51°13.31 2°51.202 242.5 15 242.1 9.4
2001-12-17 08:39:12 51°13.3 2°51.173 242.7 15 242 9.4
2001-12-17 08:39:17 51°13.29 2°51.143 242.8 15 242 9.5
2001-12-17 08:39:21 51°13.283 2°51.12 243.2 15 242.1 9.5
2001-12-17 08:39:27 51°13.271 2°51.085 243.5 15 242.2 9.4
2001-12-17 08:39:32 51°13.262 2°51.055 243.2 15 242.6 9.5
2001-12-17 08:39:37 51°13.252 2°51.026 243 14.9 242 9.2
2001-12-17 08:39:42 51°13.242 2°50.997 242.7 14.9 242 9.3
2001-12-17 08:39:47 51°13.232 2°50.968 243 15 242 9.3
2001-12-17 08:39:52 51°13.222 2°50.939 243.3 15 242 9.4
2001-12-17 08:39:57 51°13.213 2°50.909 243 15 242 9.4
2001-12-17 08:40:02 51°13.203 2°50.88 243.2 15 242.4 9.3
2001-12-17 08:40:07 51°13.193 2°50.851 242.7 15 241.8 9.4
2001-12-17 08:40:12 51°13.184 2°50.822 243 15 242.1 9.5
2001-12-17 08:40:17 51°13.174 2°50.793 242.7 15 241.6 9.2
2001-12-17 08:40:22 51°13.164 2°50.763 243.2 15 242.2 9.6
2001-12-17 08:40:27 51°13.154 2°50.734 242.8 15 241.8 9.5
2001-12-17 08:40:32 51°13.145 2°50.705 243.2 15 242.3 9.7
2001-12-17 08:40:37 51°13.135 2°50.676 242.7 15 241.9 9.7
2001-12-17 08:40:42 51°13.125 2°50.646 242.7 15 242.1 9.7
2001-12-17 08:40:47 51°13.115 2°50.617 242.8 15 241.8 9.7
2001-12-17 08:40:52 51°13.106 2°50.588 242.8 15 242.1 9.6
2001-12-17 08:40:57 51°13.097 2°50.558 242.7 15 241.8 9.4
2001-12-17 08:41:02 51°13.087 2°50.529 243.2 15 242.2 9.6
2001-12-17 08:41:07 51°13.077 2°50.5 243.2 15 242.1 9.7
2001-12-17 08:41:12 51°13.068 2°50.47 243 15 242.2 9.7
2001-12-17 08:41:17 51°13.058 2°50.441 242.8 15 242.2 9.5
2001-12-17 08:41:21 51°13.05 2°50.417 242.5 15 242.5 9.8
2001-12-17 08:41:27 51°13.038 2°50.382 243.2 15 242.6 9.7
2001-12-17 08:41:32 51°13.028 2°50.353 242.7 15 241.9 9.6
2001-12-17 08:41:37 51°13.019 2°50.324 242.3 15 242.5 9.8
2001-12-17 08:41:42 51°13.009 2°50.295 242.8 15 241.7 9.5
2001-12-17 08:41:47 51°12.999 2°50.265 243.2 15 242.4 9.8
2001-12-17 08:41:52 51°12.989 2°50.236 243 15 242.6 9.7
2001-12-17 08:41:57 51°12.98 2°50.206 243.2 15 242.8 9.6
2001-12-17 08:42:02 51°12.97 2°50.177 243.2 15 242.2 9.6
2001-12-17 08:42:07 51°12.96 2°50.147 243.3 15 242.4 9.9
2001-12-17 08:42:12 51°12.951 2°50.118 243 15 242.1 9.7
2001-12-17 08:42:17 51°12.942 2°50.088 243.7 15 242.7 9.8
2001-12-17 08:42:22 51°12.931 2°50.059 243.2 15 241.9 9.9
2001-12-17 08:42:27 51°12.923 2°50.029 243.5 15 243 9.8
2001-12-17 08:42:32 51°12.912 2°50 242.8 15 242.2 9.9
2001-12-17 08:42:37 51°12.903 2°49.971 243 15.1 242.5 10
2001-12-17 08:42:42 51°12.893 2°49.941 242.3 15.1 242.2 10
2001-12-17 08:42:47 51°12.884 2°49.911 243 15.1 242.7 10.1
2001-12-17 08:42:52 51°12.874 2°49.882 243.3 15.1 242.5 10
2001-12-17 08:42:56 51°12.866 2°49.858 243.2 15.1 242.4 10
2001-12-17 08:43:02 51°12.854 2°49.823 243.3 15.1 242.5 10.1
2001-12-17 08:43:07 51°12.844 2°49.793 243.3 15.1 242.6 10.1
2001-12-17 08:43:12 51°12.834 2°49.764 242.8 15.1 242.4 10.1
2001-12-17 08:43:17 51°12.825 2°49.734 243 15.1 242.7 10.1
2001-12-17 08:43:21 51°12.817 2°49.711 242.8 15.1 242.4 10.1
2001-12-17 08:43:27 51°12.806 2°49.675 242.7 15.1 242.1 10
2001-12-17 08:43:32 51°12.796 2°49.646 242.7 15.1 242.3 9.8
2001-12-17 08:43:37 51°12.786 2°49.616 243 15.1 241.9 10.2
2001-12-17 08:43:42 51°12.776 2°49.587 243.5 15.1 242.4 10.1
2001-12-17 08:43:47 51°12.767 2°49.557 243.7 15.1 242.2 10.3
2001-12-17 08:43:52 51°12.757 2°49.528 243.2 15.1 242.7 10.3
2001-12-17 08:43:57 51°12.747 2°49.498 243.2 15.1 242.2 10.2
2001-12-17 08:44:02 51°12.737 2°49.469 243.3 15.1 242.4 10.2
2001-12-17 08:44:07 51°12.728 2°49.44 243 15.1 242.2 10.3
2001-12-17 08:44:12 51°12.718 2°49.41 243.5 15.1 242.5 10.3
2001-12-17 08:44:17 51°12.708 2°49.381 243 15 242.1 10.3
2001-12-17 08:44:22 51°12.699 2°49.351 243.3 15 242.4 10.3
2001-12-17 08:44:27 51°12.689 2°49.322 243 15 242.1 10.2
2001-12-17 08:44:32 51°12.679 2°49.292 242.7 15 242.6 10.3
2001-12-17 08:44:36 51°12.671 2°49.269 243 15 242 10.4
2001-12-17 08:44:42 51°12.66 2°49.233 243.2 15.1 242.1 10.4
2001-12-17 08:44:47 51°12.65 2°49.204 242.7 15.1 241.8 10.5
2001-12-17 08:44:52 51°12.64 2°49.175 243 15.1 242.3 10.5
2001-12-17 08:44:57 51°12.63 2°49.145 243 15 241.7 10.5
2001-12-17 08:45:02 51°12.621 2°49.115 243.7 15.1 242.4 10.5
2001-12-17 08:45:07 51°12.611 2°49.086 242.8 15.1 242.1 10.6
2001-12-17 08:45:12 51°12.601 2°49.056 243 15.1 242.1 10.5
2001-12-17 08:45:17 51°12.591 2°49.027 243 15.1 242.2 10.6
2001-12-17 08:45:22 51°12.581 2°48.998 242.5 15.1 241.9 10.6
2001-12-17 08:45:27 51°12.571 2°48.968 243 15.2 241.9 10.6
2001-12-17 08:45:32 51°12.562 2°48.938 243 15.2 242.1 10.5
2001-12-17 08:45:37 51°12.552 2°48.909 243.7 15.1 242.5 10.6
2001-12-17 08:45:42 51°12.543 2°48.879 244.5 15.1 243.2 10.6
2001-12-17 08:45:47 51°12.534 2°48.849 245.3 15.2 243.6 10.7
2001-12-17 08:45:52 51°12.525 2°48.819 245.5 15.1 244.3 10.6
2001-12-17 08:45:57 51°12.516 2°48.788 246 15.1 244.6 10.6
2001-12-17 08:46:01 51°12.509 2°48.764 245.2 15.1 244.6 10.7
2001-12-17 08:46:07 51°12.498 2°48.728 245.5 15.1 244.7 10.7
2001-12-17 08:46:12 51°12.488 2°48.699 245.2 15.1 243.9 10.8
2001-12-17 08:46:17 51°12.48 2°48.668 245 15.1 244.4 10.7
2001-12-17 08:46:21 51°12.472 2°48.644 245.2 15.1 243.6 10.8
2001-12-17 08:46:27 51°12.461 2°48.608 245.3 15.2 244.4 10.8
2001-12-17 08:46:32 51°12.451 2°48.578 245 15.2 243.9 10.8
2001-12-17 08:46:37 51°12.442 2°48.548 245.3 15.2 244.2 10.8
2001-12-17 08:46:42 51°12.433 2°48.517 245.3 15.2 244.2 10.9
2001-12-17 08:46:47 51°12.424 2°48.487 244.5 15.2 243.8 10.8
2001-12-17 08:46:52 51°12.415 2°48.457 245.2 15.3 244.2 10.8
2001-12-17 08:46:57 51°12.405 2°48.427 244.3 15.3 244.3 10.8
2001-12-17 08:47:02 51°12.396 2°48.397 244.7 15.2 243.8 10.8
2001-12-17 08:47:07 51°12.386 2°48.366 245.2 15.3 244.1 10.8
2001-12-17 08:47:12 51°12.377 2°48.336 244.7 15.3 244.4 10.8
2001-12-17 08:47:17 51°12.368 2°48.306 244.7 15.3 243.6 10.9
2001-12-17 08:47:22 51°12.358 2°48.276 244.3 15.3 243.9 10.9
2001-12-17 08:47:27 51°12.349 2°48.245 244.7 15.3 243.6 11
2001-12-17 08:47:32 51°12.34 2°48.215 245.8 15.3 244.2 10.8
2001-12-17 08:47:37 51°12.33 2°48.185 245.5 15.3 244.2 11.1
2001-12-17 08:47:42 51°12.322 2°48.154 245.5 15.2 244.6 11.1
2001-12-17 08:47:47 51°12.312 2°48.123 245.7 15.3 244.3 11.1
2001-12-17 08:47:51 51°12.305 2°48.099 245.3 15.3 244.3 11.1
2001-12-17 08:47:57 51°12.293 2°48.063 244.8 15.2 243.2 11.1
2001-12-17 08:48:01 51°12.286 2°48.039 245 15.3 243.9 11.1
2001-12-17 08:48:07 51°12.275 2°48.003 244.8 15.3 243.3 11.2
2001-12-17 08:48:12 51°12.266 2°47.973 245 15.2 243.6 11.2
2001-12-17 08:48:17 51°12.256 2°47.943 244.3 15.2 243.2 11.1
2001-12-17 08:48:22 51°12.247 2°47.913 244.8 15.2 243.5 11.1
2001-12-17 08:48:27 51°12.237 2°47.883 244.7 15.2 243.2 11.2
2001-12-17 08:48:32 51°12.228 2°47.853 245.2 15.2 243.6 11.1
2001-12-17 08:48:37 51°12.218 2°47.823 245.3 15.2 243.3 11.2
2001-12-17 08:48:42 51°12.209 2°47.793 245.2 15.2 243.8 11.2
2001-12-17 08:48:47 51°12.2 2°47.762 245.2 15.2 243.9 11.2
2001-12-17 08:48:52 51°12.191 2°47.733 245.2 15.2 243.6 11.2
2001-12-17 08:48:57 51°12.181 2°47.703 245.7 15.2 244.1 11.2
2001-12-17 08:49:02 51°12.172 2°47.673 245.3 15.2 243.9 11.2
2001-12-17 08:49:07 51°12.163 2°47.643 245 15.2 243.7 11.2
2001-12-17 08:49:12 51°12.153 2°47.613 245.5 15.2 243.8 11.3
2001-12-17 08:49:17 51°12.144 2°47.583 245.3 15.1 244 11.3
2001-12-17 08:49:22 51°12.135 2°47.553 245.2 15.1 244.2 11.3
2001-12-17 08:49:27 51°12.126 2°47.523 245 15.1 244 11.3
2001-12-17 08:49:31 51°12.119 2°47.499 245.2 15.1 244.2 11.3
2001-12-17 08:49:37 51°12.107 2°47.463 244.8 15 243.7 11.3
2001-12-17 08:49:42 51°12.098 2°47.433 245 15.1 243.4 11.4
2001-12-17 08:49:47 51°12.089 2°47.403 245 15.1 244.1 11.4
2001-12-17 08:49:52 51°12.08 2°47.373 245.7 15.1 243.8 11.4
2001-12-17 08:49:57 51°12.072 2°47.342 247.2 15 245.6 11.3
2001-12-17 08:50:02 51°12.063 2°47.312 248 15.1 245.2 11.4
2001-12-17 08:50:07 51°12.055 2°47.282 248.3 15.1 246.7 11.4
2001-12-17 08:50:12 51°12.047 2°47.251 249.3 15 246.7 11.4
2001-12-17 08:50:17 51°12.039 2°47.22 249.7 15 247.3 11.4
2001-12-17 08:50:22 51°12.031 2°47.189 249.5 15 247.8 11.4
2001-12-17 08:50:27 51°12.023 2°47.159 250.3 15 247.8 11.5
2001-12-17 08:50:32 51°12.016 2°47.128 250.2 15 248.2 11.4
2001-12-17 08:50:37 51°12.008 2°47.097 251 15 248.3 11.3
2001-12-17 08:50:42 51°12 2°47.066 250.5 15 248.7 11.4
2001-12-17 08:50:47 51°11.993 2°47.036 250 15 248.6 11.4
2001-12-17 08:50:52 51°11.985 2°47.005 249.3 15 247.9 11.5
2001-12-17 08:50:57 51°11.977 2°46.974 249.5 15.1 247.9 11.5
2001-12-17 08:51:02 51°11.968 2°46.944 248.7 15.1 247 11.4
2001-12-17 08:51:07 51°11.961 2°46.913 248.8 15.1 247.7 11.5
2001-12-17 08:51:12 51°11.952 2°46.883 248.8 15.1 246.3 11.5
2001-12-17 08:51:17 51°11.944 2°46.851 248.7 15.1 247.2 11.5
2001-12-17 08:51:22 51°11.936 2°46.821 248.7 15.1 246.8 11.5
2001-12-17 08:51:27 51°11.928 2°46.79 249.2 15.1 247.4 11.6
2001-12-17 08:51:32 51°11.92 2°46.759 249 15.1 247.6 11.6
2001-12-17 08:51:37 51°11.912 2°46.728 249.5 15.1 247.6 11.6
2001-12-17 08:51:42 51°11.903 2°46.698 249.2 15.1 247.6 11.6
2001-12-17 08:51:47 51°11.896 2°46.666 249.5 15.1 247.7 11.6
2001-12-17 08:51:52 51°11.888 2°46.636 249.2 15.1 247.5 11.6
2001-12-17 08:51:57 51°11.88 2°46.605 249.3 15.1 248.1 11.6
2001-12-17 08:52:02 51°11.872 2°46.574 249.5 15.1 247.8 11.6
2001-12-17 08:52:06 51°11.866 2°46.549 249 15.1 248.2 11.7
2001-12-17 08:52:12 51°11.856 2°46.512 249.2 15.1 247.8 11.6
2001-12-17 08:52:17 51°11.848 2°46.481 249 15.1 247.1 11.6
2001-12-17 08:52:22 51°11.84 2°46.45 249.8 15.2 247.8 11.6
2001-12-17 08:52:27 51°11.832 2°46.42 249.2 15.1 247.4 11.6
2001-12-17 08:52:32 51°11.824 2°46.389 249.2 15.1 248 11.7
2001-12-17 08:52:37 51°11.816 2°46.358 249.3 15.1 247.4 11.6
2001-12-17 08:52:41 51°11.81 2°46.333 249 15.1 247.9 11.6
2001-12-17 08:52:47 51°11.8 2°46.296 248.8 15.1 247.2 11.6
2001-12-17 08:52:52 51°11.792 2°46.265 249 15.1 247.6 11.7
2001-12-17 08:52:57 51°11.783 2°46.235 248.8 15.1 246.7 11.6
2001-12-17 08:53:02 51°11.776 2°46.204 249.2 15.1 247.3 11.6
2001-12-17 08:53:07 51°11.768 2°46.173 249.3 15.1 247.4 11.6
2001-12-17 08:53:12 51°11.76 2°46.142 249.2 15.1 247.8 11.7
2001-12-17 08:53:17 51°11.752 2°46.111 249 15.1 247.2 11.7
2001-12-17 08:53:22 51°11.744 2°46.08 249 15.1 247.7 11.6
2001-12-17 08:53:27 51°11.736 2°46.05 249.2 15.1 246.8 11.7
2001-12-17 08:53:32 51°11.727 2°46.019 248.7 15.1 247.3 11.6
2001-12-17 08:53:37 51°11.72 2°45.988 248.7 15.1 247.3 11.7
2001-12-17 08:53:42 51°11.711 2°45.958 248.7 15.1 247.1 11.6
2001-12-17 08:53:47 51°11.703 2°45.927 248.7 15.1 247.2 11.7
2001-12-17 08:53:52 51°11.695 2°45.896 248.7 15.1 247.2 11.7
2001-12-17 08:53:56 51°11.688 2°45.871 249 15.1 246.9 11.6
2001-12-17 08:54:02 51°11.679 2°45.834 249.2 15.1 247.4 11.6
2001-12-17 08:54:07 51°11.671 2°45.803 249.3 15.1 247.9 11.6
2001-12-17 08:54:12 51°11.663 2°45.773 249.2 15.1 247.5 11.6
2001-12-17 08:54:17 51°11.655 2°45.741 249 15.1 248 11.6
2001-12-17 08:54:22 51°11.647 2°45.711 248.7 15.1 246.9 11.6
2001-12-17 08:54:27 51°11.639 2°45.68 249.2 15.1 247.8 11.6
2001-12-17 08:54:32 51°11.631 2°45.649 249.3 15.2 247.5 11.6
2001-12-17 08:54:37 51°11.623 2°45.618 249.2 15.1 247.6 11.6
2001-12-17 08:54:42 51°11.614 2°45.588 248.8 15.1 246.6 11.6
2001-12-17 08:54:47 51°11.607 2°45.557 249 15.1 247.6 11.6
2001-12-17 08:54:52 51°11.598 2°45.526 248.8 15.1 247.1 11.6
2001-12-17 08:54:57 51°11.591 2°45.495 249.3 15.1 247.5 11.6
2001-12-17 08:55:02 51°11.582 2°45.464 248.7 15.1 247.1 11.6
2001-12-17 08:55:07 51°11.574 2°45.433 249.2 15.1 247.6 11.6
2001-12-17 08:55:12 51°11.566 2°45.402 249 15.1 247.5 11.6
2001-12-17 08:55:17 51°11.558 2°45.372 248.5 15.1 247.1 11.4
2001-12-17 08:55:22 51°11.55 2°45.341 249.2 15.2 247.1 11.5
2001-12-17 08:55:26 51°11.543 2°45.316 249 15.2 247.1 11.5
2001-12-17 08:55:32 51°11.534 2°45.279 249.3 15.2 247.5 11.5
2001-12-17 08:55:37 51°11.525 2°45.248 249 15.1 247.4 11.5
2001-12-17 08:55:42 51°11.518 2°45.217 249.7 15.1 247.6 11.5
2001-12-17 08:55:47 51°11.509 2°45.187 249 15.1 247.2 11.5
2001-12-17 08:55:52 51°11.501 2°45.155 249.2 15.1 247.2 11.5
2001-12-17 08:55:57 51°11.493 2°45.124 248.7 15.1 247.4 11.5
2001-12-17 08:56:02 51°11.485 2°45.093 248.7 15.1 247.3 11.5
2001-12-17 08:56:07 51°11.476 2°45.063 248.8 15.1 247.1 11.5
2001-12-17 08:56:12 51°11.469 2°45.031 249.7 15.2 247.6 11.5
2001-12-17 08:56:17 51°11.46 2°45.001 249 15.2 247.3 11.5
2001-12-17 08:56:22 51°11.452 2°44.97 248.5 15.1 246.5 11.4
2001-12-17 08:56:27 51°11.444 2°44.939 249 15.1 247.2 11.4
2001-12-17 08:56:32 51°11.436 2°44.908 249.3 15.2 247.3 11.4
2001-12-17 08:56:37 51°11.428 2°44.877 249.7 15.2 247.4 11.4
2001-12-17 08:56:42 51°11.42 2°44.847 249 15.1 247 11.4
2001-12-17 08:56:47 51°11.412 2°44.816 249.2 15.1 247 11.4
2001-12-17 08:56:52 51°11.404 2°44.785 248.8 15.1 247.4 11.4
2001-12-17 08:56:57 51°11.396 2°44.755 249.3 15.1 247.1 11.4
2001-12-17 08:57:02 51°11.387 2°44.724 249 15.1 247.3 11.4
2001-12-17 08:57:07 51°11.379 2°44.694 248.7 15.1 247 11.4
2001-12-17 08:57:12 51°11.371 2°44.663 248.8 15.1 247.5 11.4
2001-12-17 08:57:16 51°11.364 2°44.638 249 15 246.9 11.4
2001-12-17 08:57:22 51°11.355 2°44.601 249.2 15.1 247.1 11.4
2001-12-17 08:57:27 51°11.347 2°44.571 248.7 15.1 247 11.4
2001-12-17 08:57:32 51°11.339 2°44.54 248.8 15.1 246.9 11.4
2001-12-17 08:57:37 51°11.33 2°44.509 248.7 15.1 246.9 11.4
2001-12-17 08:57:42 51°11.322 2°44.478 249.2 15.1 246.8 11.3
2001-12-17 08:57:47 51°11.314 2°44.448 249.3 15.1 247.5 11.3
2001-12-17 08:57:52 51°11.305 2°44.417 249.2 15.1 246.7 11.3
2001-12-17 08:57:57 51°11.297 2°44.387 249.5 15.1 247.2 11.3
2001-12-17 08:58:02 51°11.289 2°44.356 248.5 15.1 246.8 11.3
2001-12-17 08:58:07 51°11.281 2°44.325 248.8 15.1 247.2 11.4
2001-12-17 08:58:12 51°11.273 2°44.295 249.2 15.1 246.9 11.3
2001-12-17 08:58:17 51°11.265 2°44.264 249 15.1 247 11.3
2001-12-17 08:58:22 51°11.256 2°44.234 249 15.1 246.8 11.3
2001-12-17 08:58:27 51°11.249 2°44.203 249.2 15.1 247.4 11.3
2001-12-17 08:58:32 51°11.24 2°44.173 248.7 15.1 246.5 11.2
2001-12-17 08:58:37 51°11.232 2°44.142 248.7 15.1 247.2 11.3
2001-12-17 08:58:42 51°11.223 2°44.112 248.5 15.1 246.4 11.3
2001-12-17 08:58:47 51°11.215 2°44.081 248.8 15.1 246.6 11.3
2001-12-17 08:58:52 51°11.207 2°44.05 249.2 15.1 246.7 11.3
2001-12-17 08:58:57 51°11.199 2°44.019 249.8 15.1 247.2 11.3
2001-12-17 08:59:02 51°11.191 2°43.989 249.3 15.1 246.9 11.3
2001-12-17 08:59:07 51°11.183 2°43.958 248.8 15.1 247.3 11.2
2001-12-17 08:59:12 51°11.175 2°43.927 249 15.1 247 11.2
2001-12-17 08:59:17 51°11.166 2°43.897 249.2 15.1 247 11.2
2001-12-17 08:59:21 51°11.16 2°43.872 249 15.1 246.8 11.2
2001-12-17 08:59:27 51°11.15 2°43.836 249.3 15.1 246.9 11.2
2001-12-17 08:59:32 51°11.142 2°43.805 249.5 15.1 247 11.2
2001-12-17 08:59:37 51°11.134 2°43.774 249.3 15.1 247 11.2
2001-12-17 08:59:42 51°11.126 2°43.744 249.3 15.1 246.9 11.2
2001-12-17 08:59:47 51°11.117 2°43.713 249.2 15.1 246.9 11.2
2001-12-17 08:59:52 51°11.109 2°43.683 248.7 15.1 246.9 11.2
2001-12-17 08:59:57 51°11.102 2°43.652 249 15.1 246.8 11.3
2001-12-17 09:00:02 51°11.093 2°43.621 248.8 15 246.8 11.2
2001-12-17 09:00:07 51°11.085 2°43.59 248.8 15.1 246.8 11.2
2001-12-17 09:00:12 51°11.076 2°43.559 249.2 15.1 246.7 11.2
2001-12-17 09:00:17 51°11.068 2°43.529 249.2 15.1 246.6 11.2
2001-12-17 09:00:21 51°11.062 2°43.504 248.8 15.1 247.1 11.2
2001-12-17 09:00:27 51°11.051 2°43.468 249.2 15.1 246.4 11.2
2001-12-17 09:00:32 51°11.043 2°43.437 248.7 15.1 247 11.1
2001-12-17 09:00:37 51°11.035 2°43.406 249 15.1 246.8 11.1
2001-12-17 09:00:42 51°11.026 2°43.376 249.2 15.1 246.3 11.2
2001-12-17 09:00:47 51°11.018 2°43.345 248.7 15.1 246.7 11.2
2001-12-17 09:00:52 51°11.01 2°43.315 249.2 15.1 246.3 11.2
2001-12-17 09:00:57 51°11.001 2°43.284 249 15.1 246.5 11.1
2001-12-17 09:01:02 51°10.993 2°43.253 249.7 15.1 246.9 11.1
2001-12-17 09:01:07 51°10.985 2°43.222 249.3 15.2 246.7 11.2
2001-12-17 09:01:12 51°10.976 2°43.191 248.8 15.2 246.7 11.2
2001-12-17 09:01:17 51°10.968 2°43.161 249.3 15.2 246.6 11.1
2001-12-17 09:01:22 51°10.96 2°43.13 248.7 15.2 246.6 11.1
2001-12-17 09:01:27 51°10.951 2°43.1 248.5 15.2 246 11.1
2001-12-17 09:01:32 51°10.943 2°43.069 249 15.2 246.9 11.1
2001-12-17 09:01:37 51°10.935 2°43.038 249 15.2 246.4 11
2001-12-17 09:01:42 51°10.927 2°43.007 249.5 15.2 247 11
2001-12-17 09:01:47 51°10.918 2°42.977 249 15.2 246.5 11
2001-12-17 09:01:52 51°10.91 2°42.946 248.8 15.2 246.6 11
2001-12-17 09:01:57 51°10.902 2°42.915 249.2 15.2 246.5 11
2001-12-17 09:02:02 51°10.893 2°42.884 249.2 15.1 246.8 11
2001-12-17 09:02:07 51°10.884 2°42.854 248.8 15.1 246.4 11
2001-12-17 09:02:12 51°10.876 2°42.823 249.7 15.2 246.7 10.9
2001-12-17 09:02:17 51°10.868 2°42.792 250.2 15.2 247 10.9
2001-12-17 09:02:22 51°10.861 2°42.761 251 15.1 248.2 10.9
2001-12-17 09:02:27 51°10.853 2°42.73 251.2 15.1 248.2 11
2001-12-17 09:02:32 51°10.845 2°42.699 251.3 15.1 248.4 10.9
2001-12-17 09:02:37 51°10.838 2°42.668 251.3 15.2 248.5 10.9
2001-12-17 09:02:42 51°10.83 2°42.636 251.3 15.2 248.7 10.9
2001-12-17 09:02:47 51°10.822 2°42.605 251.8 15.2 248.4 10.9
2001-12-17 09:02:52 51°10.814 2°42.574 251.3 15.2 248.5 10.9
2001-12-17 09:02:57 51°10.807 2°42.543 251.5 15.2 248.4 10.9
2001-12-17 09:03:02 51°10.799 2°42.512 251.5 15.2 248.2 11
2001-12-17 09:03:07 51°10.791 2°42.481 251.3 15.2 248.4 10.8
2001-12-17 09:03:12 51°10.783 2°42.449 251.5 15.2 248.2 10.9
2001-12-17 09:03:17 51°10.775 2°42.419 251.7 15.2 248.3 10.9
2001-12-17 09:03:22 51°10.768 2°42.387 251.3 15.1 248.5 10.8
2001-12-17 09:03:27 51°10.76 2°42.356 251.3 15.2 248.5 10.9
2001-12-17 09:03:32 51°10.752 2°42.325 251.2 15.1 248.1 10.8
2001-12-17 09:03:37 51°10.744 2°42.294 250.8 15.1 248.1 10.8
2001-12-17 09:03:40 51°10.74 2°42.276 251.7 15.1 248.2 10.8
2001-12-17 09:03:47 51°10.729 2°42.233 251.2 15.1 247.9 10.8
2001-12-17 09:03:52 51°10.721 2°42.202 251 15 248.2 10.8
2001-12-17 09:03:57 51°10.713 2°42.171 251.2 15.1 248 10.8
2001-12-17 09:04:02 51°10.705 2°42.14 251.3 15.1 248.1 10.8
2001-12-17 09:04:07 51°10.698 2°42.109 251.3 15.1 248 10.8
2001-12-17 09:04:12 51°10.69 2°42.078 251.2 15.1 248.2 10.8
2001-12-17 09:04:17 51°10.682 2°42.047 251.3 15.1 248.4 10.8
2001-12-17 09:04:22 51°10.674 2°42.017 250.8 15.1 248 10.8
2001-12-17 09:04:27 51°10.666 2°41.986 250.7 15 247.8 10.9
2001-12-17 09:04:32 51°10.659 2°41.955 250.8 15.1 248.1 10.9
2001-12-17 09:04:37 51°10.651 2°41.924 251.2 15.1 248.2 10.9
2001-12-17 09:04:42 51°10.643 2°41.893 251 15.1 248.1 10.8
2001-12-17 09:04:47 51°10.635 2°41.862 251 15 247.9 10.8
2001-12-17 09:04:52 51°10.628 2°41.831 251.3 15.1 248.1 10.8
2001-12-17 09:04:57 51°10.619 2°41.801 251 15.1 247.8 10.7
2001-12-17 09:05:02 51°10.612 2°41.77 250.8 15.1 247.9 10.8
2001-12-17 09:05:07 51°10.604 2°41.739 250.8 15 247.8 10.8
2001-12-17 09:05:12 51°10.596 2°41.708 251.3 15.1 248 10.7
2001-12-17 09:05:17 51°10.588 2°41.678 251 15.1 247.8 10.7
2001-12-17 09:05:22 51°10.58 2°41.647 250.7 15.1 247.9 10.8
2001-12-17 09:05:27 51°10.573 2°41.616 251.5 15.1 247.9 10.8
2001-12-17 09:05:32 51°10.565 2°41.585 251.5 15.1 248 10.8
2001-12-17 09:05:37 51°10.557 2°41.554 251.2 15 248.1 10.7
2001-12-17 09:05:42 51°10.549 2°41.523 251.3 15 248.2 10.9
2001-12-17 09:05:47 51°10.541 2°41.493 251 15.1 247.9 10.7
2001-12-17 09:05:52 51°10.533 2°41.462 250.7 15.1 247.6 10.8
2001-12-17 09:05:57 51°10.525 2°41.431 250.7 15.1 247.5 10.8
2001-12-17 09:06:01 51°10.519 2°41.406 250.8 15.1 247.5 10.7
2001-12-17 09:06:07 51°10.509 2°41.369 251 15.1 247.8 10.8
2001-12-17 09:06:12 51°10.501 2°41.339 251 15.1 247.6 10.8
2001-12-17 09:06:17 51°10.493 2°41.308 251.3 15.1 247.8 10.7
2001-12-17 09:06:22 51°10.485 2°41.277 251.2 15.1 248 10.7
2001-12-17 09:06:27 51°10.478 2°41.246 251.3 15.1 248.2 10.7
2001-12-17 09:06:32 51°10.47 2°41.215 250.8 15.1 247.9 10.8
2001-12-17 09:06:37 51°10.462 2°41.184 250.8 15.1 247.8 10.8
2001-12-17 09:06:42 51°10.454 2°41.153 251 15.1 248.3 10.7
2001-12-17 09:06:47 51°10.446 2°41.123 251 15 247.8 10.8
2001-12-17 09:06:52 51°10.438 2°41.092 250.3 15 247.8 10.8
2001-12-17 09:06:57 51°10.431 2°41.061 250.8 15.1 247.3 10.8
2001-12-17 09:07:02 51°10.422 2°41.031 251 15 247.2 10.8
2001-12-17 09:07:07 51°10.415 2°41 251 15.1 248 10.8
2001-12-17 09:07:12 51°10.406 2°40.969 251 15.1 247.4 10.8
2001-12-17 09:07:16 51°10.4 2°40.945 251 15 247.9 10.8
2001-12-17 09:07:21 51°10.392 2°40.914 251 15 247.4 10.9
2001-12-17 09:07:27 51°10.383 2°40.877 251.2 15 247.8 10.9
2001-12-17 09:07:32 51°10.375 2°40.847 251 15 247.6 10.8
2001-12-17 09:07:37 51°10.367 2°40.816 251 15 247.8 10.8
2001-12-17 09:07:42 51°10.359 2°40.786 250.7 15 247.2 10.8
2001-12-17 09:07:47 51°10.351 2°40.755 250.5 15 247.6 10.8
2001-12-17 09:07:52 51°10.343 2°40.725 251.2 15 247.1 10.9
2001-12-17 09:07:57 51°10.335 2°40.694 251.2 14.9 247.6 10.9
2001-12-17 09:08:02 51°10.328 2°40.664 251 14.9 247.6 10.8
2001-12-17 09:08:07 51°10.319 2°40.633 250.8 14.9 247.6 10.8
2001-12-17 09:08:12 51°10.312 2°40.602 250.8 15 247.6 10.8
2001-12-17 09:08:17 51°10.304 2°40.572 251.5 14.9 247.7 10.8
2001-12-17 09:08:22 51°10.297 2°40.541 251.7 14.9 248.1 10.8
2001-12-17 09:08:27 51°10.289 2°40.511 251 14.9 247.8 10.9
2001-12-17 09:08:32 51°10.281 2°40.48 251.2 15 247.6 10.9
2001-12-17 09:08:37 51°10.272 2°40.45 250.5 14.9 247.1 10.8
2001-12-17 09:08:42 51°10.265 2°40.42 250.5 14.9 247.4 10.9
2001-12-17 09:08:47 51°10.257 2°40.389 250.8 14.9 247.4 10.9
2001-12-17 09:08:52 51°10.249 2°40.359 251.2 14.9 247.9 10.9
2001-12-17 09:08:57 51°10.241 2°40.328 251.5 15 247.9 10.9
2001-12-17 09:09:02 51°10.234 2°40.298 251.5 14.9 248 10.9
2001-12-17 09:09:07 51°10.226 2°40.267 251.2 14.9 247.9 10.9
2001-12-17 09:09:12 51°10.218 2°40.237 251 14.9 247.7 10.9
2001-12-17 09:09:17 51°10.21 2°40.206 250.8 14.9 247.3 10.9
2001-12-17 09:09:22 51°10.202 2°40.176 250.5 14.9 247.9 10.9
2001-12-17 09:09:27 51°10.194 2°40.146 251.3 14.9 247.2 11
2001-12-17 09:09:32 51°10.186 2°40.115 251.3 14.9 248.2 11
2001-12-17 09:09:37 51°10.179 2°40.085 251.3 14.9 248.1 11
2001-12-17 09:09:42 51°10.171 2°40.054 251.8 14.9 248 10.9
2001-12-17 09:09:47 51°10.163 2°40.025 250.7 14.8 247.2 11
2001-12-17 09:09:52 51°10.155 2°39.994 250.5 14.8 247.9 10.9
2001-12-17 09:09:57 51°10.147 2°39.964 250.8 14.8 247.3 10.9
2001-12-17 09:10:02 51°10.139 2°39.933 251.2 14.9 247.4 11
2001-12-17 09:10:07 51°10.131 2°39.903 251 14.9 247.2 11
2001-12-17 09:10:12 51°10.123 2°39.873 250.8 14.9 246.9 10.9
2001-12-17 09:10:17 51°10.115 2°39.843 250.7 14.9 247.4 10.9
2001-12-17 09:10:21 51°10.109 2°39.818 251 14.9 247.2 10.9
2001-12-17 09:10:27 51°10.099 2°39.782 251.2 14.9 247.3 10.9
2001-12-17 09:10:32 51°10.092 2°39.752 250.7 14.8 247.4 10.9
2001-12-17 09:10:37 51°10.084 2°39.722 250.7 14.8 247.5 11
2001-12-17 09:10:41 51°10.078 2°39.697 251.2 14.8 247.6 10.9
2001-12-17 09:10:47 51°10.068 2°39.661 251.5 14.8 247.7 11
2001-12-17 09:10:52 51°10.06 2°39.631 250.7 14.8 247.8 11
2001-12-17 09:10:57 51°10.053 2°39.6 251.3 14.8 248.1 10.9
2001-12-17 09:11:02 51°10.044 2°39.57 251.2 14.9 247.8 10.9
2001-12-17 09:11:07 51°10.037 2°39.54 251.2 14.8 247.8 11
2001-12-17 09:11:12 51°10.029 2°39.51 251 14.8 247.6 11
2001-12-17 09:11:17 51°10.021 2°39.479 251.2 14.8 247.8 11